Seiyoh No.6 — JD3381 — position and weather

sailwx.info

Track history (hours):
 
Tides and Currents Weather Stations Pressure Air Temp Water Temp Dewpoint Dewpoint Depression Visibility Wind Speed Wind Dir Waves Ship Positions

Seiyoh No.6

Last reported at 2017-Sep-20 08:24 UTC. Time now 2017-Sep-23 07:29 UTC.
Position N 35°08' E 139°41'.

Length 60 m.

Type: Tanker. MMSI: 431003734.

Date/timePositionNaut miles runAvg speedWind from/ knotsBaromVisibWave heightAir tempDewpointWater temp
2017-Sep-20 08:24N 35°08' E 139°41'410.4
2017-Sep-20 08:00N 35°11' E 139°45'5 9.9
2017-Sep-20 07:30N 35°16' E 139°45'611.3
2017-Sep-20 06:59N 35°22' E 139°42'511.2
2017-Sep-20 06:30N 35°27' E 139°45'510.5
2017-Sep-20 06:00N 35°31' E 139°49'5 9.2
2017-Sep-20 05:27N 35°36' E 139°50'2 3.7
2017-Sep-20 04:59N 35°37' E 139°50'0 0.0
2017-Sep-20 04:29N 35°37' E 139°50'6 0.3
2017-Sep-19 09:17N 35°31' E 139°50'3 9.4
2017-Sep-19 09:00N 35°30' E 139°47'1 0.8
2017-Sep-19 07:10N 35°32' E 139°46'0 1.9
2017-Sep-19 07:00N 35°31' E 139°46'1411.2
2017-Sep-19 05:47N 35°18' E 139°45'412.4
2017-Sep-19 05:29N 35°14' E 139°47'612.1
2017-Sep-19 05:00N 35°09' E 139°45'611.9
2017-Sep-19 04:30N 35°04' E 139°41'  
2017-Sep-11 05:29N 34°36' E 135°03'611.4
2017-Sep-11 05:00N 34°38' E 135°10'2 4.3
2017-Sep-11 04:27N 34°40' E 135°11'0 0.0
2017-Sep-11 03:57N 34°40' E 135°11'0 0.0
2017-Sep-11 03:25N 34°40' E 135°11'0 0.0
2017-Sep-11 02:55N 34°40' E 135°11'0 0.0
2017-Sep-11 02:26N 34°40' E 135°11'0 0.0
2017-Sep-11 01:49N 34°40' E 135°11'0 0.0
2017-Sep-11 01:25N 34°40' E 135°11'1 1.3
2017-Sep-11 01:00N 34°40' E 135°11'4 1.2
2017-Sep-10 22:01N 34°38' E 135°08'0 0.0
2017-Sep-10 21:49N 34°38' E 135°08'0 0.0
2017-Sep-10 20:07N 34°38' E 135°08'0 0.1
2017-Sep-10 19:43N 34°38' E 135°08'0 0.1
2017-Sep-10 19:25N 34°38' E 135°08'0 0.0
2017-Sep-10 18:49N 34°38' E 135°08'0 0.0
2017-Sep-10 18:25N 34°38' E 135°08'0 0.0
2017-Sep-10 17:49N 34°38' E 135°08'0 0.1
2017-Sep-10 17:25N 34°38' E 135°08'0 0.0
2017-Sep-10 16:55N 34°38' E 135°08'0 0.0
2017-Sep-10 16:13N 34°38' E 135°08'0 0.0
2017-Sep-10 15:55N 34°38' E 135°08'0 0.0
2017-Sep-10 15:25N 34°38' E 135°08'0 0.0
2017-Sep-10 14:55N 34°38' E 135°08'0 0.0
2017-Sep-10 13:43N 34°38' E 135°08'0 0.0
2017-Sep-10 10:43N 34°38' E 135°08'0 0.0
2017-Sep-10 10:25N 34°38' E 135°08'0 0.0
2017-Sep-10 09:43N 34°38' E 135°08'1 5.9
2017-Sep-10 09:30N 34°36' E 135°08'  
Track history (hours):
 
Tides and Currents Weather Stations Pressure Air Temp Water Temp Dewpoint Dewpoint Depression Visibility Wind Speed Wind Dir Waves Ship Positions

Seiyoh No.6

Last reported at 2017-Sep-20 08:24 UTC. Time now 2017-Sep-23 07:29 UTC.
Position N 35°08' E 139°41'.

Length 60 m.

Type: Tanker. MMSI: 431003734.

Date/timePositionNaut miles runAvg speedWind from/ knotsBaromVisibWave heightAir tempDewpointWater temp
2017-Sep-20 08:24N 35°08' E 139°41'410.4
2017-Sep-20 08:00N 35°11' E 139°45'5 9.9
2017-Sep-20 07:30N 35°16' E 139°45'611.3
2017-Sep-20 06:59N 35°22' E 139°42'511.2
2017-Sep-20 06:30N 35°27' E 139°45'510.5
2017-Sep-20 06:00N 35°31' E 139°49'5 9.2
2017-Sep-20 05:27N 35°36' E 139°50'2 3.7
2017-Sep-20 04:59N 35°37' E 139°50'0 0.0
2017-Sep-20 04:29N 35°37' E 139°50'6 0.3
2017-Sep-19 09:17N 35°31' E 139°50'3 9.4
2017-Sep-19 09:00N 35°30' E 139°47'1 0.8
2017-Sep-19 07:10N 35°32' E 139°46'0 1.9
2017-Sep-19 07:00N 35°31' E 139°46'1411.2
2017-Sep-19 05:47N 35°18' E 139°45'412.4
2017-Sep-19 05:29N 35°14' E 139°47'612.1
2017-Sep-19 05:00N 35°09' E 139°45'611.9
2017-Sep-19 04:30N 35°04' E 139°41'  
2017-Sep-11 05:29N 34°36' E 135°03'611.4
2017-Sep-11 05:00N 34°38' E 135°10'2 4.3
2017-Sep-11 04:27N 34°40' E 135°11'0 0.0
2017-Sep-11 03:57N 34°40' E 135°11'0 0.0
2017-Sep-11 03:25N 34°40' E 135°11'0 0.0
2017-Sep-11 02:55N 34°40' E 135°11'0 0.0
2017-Sep-11 02:26N 34°40' E 135°11'0 0.0
2017-Sep-11 01:49N 34°40' E 135°11'0 0.0
2017-Sep-11 01:25N 34°40' E 135°11'1 1.3
2017-Sep-11 01:00N 34°40' E 135°11'4 1.2
2017-Sep-10 22:01N 34°38' E 135°08'0 0.0
2017-Sep-10 21:49N 34°38' E 135°08'0 0.0
2017-Sep-10 20:07N 34°38' E 135°08'0 0.1
2017-Sep-10 19:43N 34°38' E 135°08'0 0.1
2017-Sep-10 19:25N 34°38' E 135°08'0 0.0
2017-Sep-10 18:49N 34°38' E 135°08'0 0.0
2017-Sep-10 18:25N 34°38' E 135°08'0 0.0
2017-Sep-10 17:49N 34°38' E 135°08'0 0.1
2017-Sep-10 17:25N 34°38' E 135°08'0 0.0
2017-Sep-10 16:55N 34°38' E 135°08'0 0.0
2017-Sep-10 16:13N 34°38' E 135°08'0 0.0
2017-Sep-10 15:55N 34°38' E 135°08'0 0.0
2017-Sep-10 15:25N 34°38' E 135°08'0 0.0
2017-Sep-10 14:55N 34°38' E 135°08'0 0.0
2017-Sep-10 13:43N 34°38' E 135°08'0 0.0
2017-Sep-10 10:43N 34°38' E 135°08'0 0.0
2017-Sep-10 10:25N 34°38' E 135°08'0 0.0
2017-Sep-10 09:43N 34°38' E 135°08'1 5.9
2017-Sep-10 09:30N 34°36' E 135°08'  

Dump ship's entire track history